Current Weather

Teterboro

Teterboro, New Jersey (KTEB)

Report from: Friday, February 23, 2024 2:51 PM EST
Current time: Friday, February 23, 2024 3:56 PM EST

Nearby weather – Weather history – Daily summaries
Weather forecast

Temperature7.8°C (46.0°F)
Wind chill5.8°C (42.5°F)
Dew point3.3°C (37.9°F)
Winds 6 kts (3.1 m/s, 6.9 mph) North (350°)
Visibility10 mi. (16.1 km)
Clouds Ceiling: Overcast 6,000 ft. (1,829 m)
Altimeter29.44 in.Hg (997 mB)
Relative humidity73 %
Density altitude-191 ft. (-58 m)
Sea-level pressure99.7 kPa (997 mB, 29.44 in.Hg)
Remarks Automated weather observing station with precipitation discriminator
Flight conditions Visual Meteorological Conditions
Raw dataKTEB 231951Z 35006KT 10SM OVC060 08/03 A2944 RMK AO2 SLP969 T00780033
An error has occurred. This application may no longer respond until reloaded. Reload 🗙